createdAt,value
2017-04-18T00:01:06.575Z,99.99
2017-04-18T00:02:19.298Z,99.73
2017-04-18T00:03:31.574Z,99.73
2017-04-18T00:04:43.818Z,99.99
2017-04-18T00:05:56.181Z,99.99
2017-04-18T00:07:08.529Z,99.83
2017-04-18T00:08:21.248Z,99.73
2017-04-18T00:09:34.557Z,99.99
2017-04-18T00:10:46.805Z,99.99
2017-04-18T00:11:59.061Z,99.99
2017-04-18T00:13:11.779Z,99.99
2017-04-18T00:14:24.505Z,99.99
2017-04-18T00:15:36.763Z,99.99
2017-04-18T00:16:49.498Z,99.99
2017-04-18T00:18:02.220Z,99.99
2017-04-18T00:19:14.981Z,99.99
2017-04-18T00:20:27.726Z,99.99
2017-04-18T00:21:40.456Z,99.99
2017-04-18T00:22:53.212Z,99.88
2017-04-18T00:24:06.212Z,99.78
2017-04-18T00:25:18.935Z,99.68
2017-04-18T00:26:30.906Z,99.54
2017-04-18T00:27:43.635Z,99.92
2017-04-18T00:28:55.876Z,99.49
2017-04-18T00:30:08.817Z,99.99
2017-04-18T00:31:21.546Z,99.73
2017-04-18T00:32:34.497Z,99.99
2017-04-18T00:33:47.239Z,99.99
2017-04-18T00:34:59.980Z,99.99
2017-04-18T00:36:12.714Z,99.63
2017-04-18T00:37:24.941Z,99.59
2017-04-18T00:38:37.653Z,99.35
2017-04-18T00:39:50.492Z,99.54
2017-04-18T00:41:03.487Z,99.98
2017-04-18T00:42:30.303Z,99.73
2017-04-18T00:43:43.050Z,99.98
2017-04-18T00:44:55.303Z,99.44
2017-04-18T00:46:08.072Z,99.54
2017-04-18T00:47:20.796Z,99.68
2017-04-18T00:48:33.084Z,99.88
2017-04-18T00:49:45.345Z,99.99
2017-04-18T00:50:57.582Z,99.68
2017-04-18T00:52:10.326Z,99.63
2017-04-18T00:53:22.585Z,99.68
2017-04-18T00:54:35.318Z,99.88
2017-04-18T00:55:48.181Z,99.78
2017-04-18T00:57:00.929Z,99.49
2017-04-18T00:58:13.682Z,99.01
2017-04-18T00:59:26.456Z,98.72
2017-04-18T01:00:39.197Z,98.72
2017-04-18T01:01:51.944Z,99.3
2017-04-18T01:03:04.729Z,99.4
2017-04-18T01:04:17.577Z,99.4
2017-04-18T01:05:30.462Z,97.96
2017-04-18T01:06:43.339Z,98.34
2017-04-18T01:07:56.231Z,97.96
2017-04-18T01:09:08.804Z,98.14
2017-04-18T01:10:21.716Z,97.86
2017-04-18T01:11:34.712Z,97.76
2017-04-18T01:12:47.773Z,97.57
2017-04-18T01:14:00.162Z,97.38
2017-04-18T01:15:12.525Z,97.19
2017-04-18T01:16:25.401Z,97.09
2017-04-18T01:17:37.812Z,97.28
2017-04-18T01:18:49.697Z,96.9
2017-04-18T01:20:02.572Z,96.7
2017-04-18T01:21:15.439Z,96.7
2017-04-18T01:22:28.315Z,97.19
2017-04-18T01:23:41.185Z,96.8
2017-04-18T01:24:54.060Z,96.7
2017-04-18T01:26:06.929Z,96.7
2017-04-18T01:27:19.315Z,96.9
2017-04-18T01:28:32.186Z,96.7
2017-04-18T01:29:45.188Z,96.61
2017-04-18T01:30:58.070Z,96.7
2017-04-18T01:32:10.913Z,96.8
2017-04-18T01:33:23.790Z,96.51
2017-04-18T01:34:36.187Z,96.42
2017-04-18T01:35:49.660Z,96.8
2017-04-18T01:37:16.118Z,96.8
2017-04-18T01:38:28.986Z,96.7
2017-04-18T01:39:41.900Z,96.51
2017-04-18T01:40:54.304Z,96.9
2017-04-18T01:42:07.169Z,96.75
2017-04-18T01:43:20.147Z,96.22
2017-04-18T01:44:33.229Z,96.27
2017-04-18T01:45:46.125Z,96.51
2017-04-18T01:46:59.003Z,96.7
2017-04-18T01:48:11.877Z,96.66
2017-04-18T01:49:24.745Z,96.56
2017-04-18T01:50:37.611Z,97.04
2017-04-18T01:51:49.997Z,95.98
2017-04-18T01:53:03.087Z,96.08
2017-04-18T01:54:15.961Z,96.66
2017-04-18T01:55:28.826Z,96.37
2017-04-18T01:56:41.709Z,95.89
2017-04-18T01:57:54.569Z,96.17
2017-04-18T01:59:07.431Z,95.89
2017-04-18T02:00:20.446Z,96.08
2017-04-18T02:01:32.844Z,95.89
2017-04-18T02:02:45.947Z,96.08
2017-04-18T02:03:58.532Z,96.08
2017-04-18T02:05:11.395Z,96.08
2017-04-18T02:06:24.263Z,96.27
2017-04-18T02:07:37.141Z,96.08
2017-04-18T02:08:50.230Z,95.6
2017-04-18T02:10:02.631Z,95.5
2017-04-18T02:11:15.483Z,95.5
2017-04-18T02:12:28.373Z,95.6
2017-04-18T02:13:41.243Z,95.03
2017-04-18T02:14:53.850Z,95.5
2017-04-18T02:16:06.728Z,94.83
2017-04-18T02:17:19.593Z,95.6
2017-04-18T02:18:32.464Z,95.21
2017-04-18T02:19:44.851Z,95.5
2017-04-18T02:20:57.267Z,94.83
2017-04-18T02:22:10.153Z,94.93
2017-04-18T02:23:23.023Z,95.03
2017-04-18T02:24:35.903Z,94.54
2017-04-18T02:25:48.985Z,95.12
2017-04-18T02:27:01.856Z,95.21
2017-04-18T02:28:14.241Z,94.26
2017-04-18T02:29:27.128Z,95.03
2017-04-18T02:30:54.050Z,94.73
2017-04-18T02:32:06.897Z,95.21
2017-04-18T02:33:19.713Z,95.31
2017-04-18T02:34:31.985Z,95.79
2017-04-18T02:35:45.123Z,95.5
2017-04-18T02:36:58.064Z,95.7
2017-04-18T02:38:10.786Z,95.7
2017-04-18T02:39:23.518Z,95.6
2017-04-18T02:40:36.243Z,95.4
2017-04-18T02:41:48.951Z,96.08
2017-04-18T02:43:01.714Z,95.98
2017-04-18T02:44:14.452Z,95.4
2017-04-18T02:45:27.217Z,95.6
2017-04-18T02:46:54.041Z,95.7
2017-04-18T02:48:06.785Z,96.03
2017-04-18T02:49:19.758Z,95.7
2017-04-18T02:50:32.624Z,96.08
2017-04-18T02:51:45.345Z,95.7
2017-04-18T02:52:58.086Z,95.5
2017-04-18T02:54:10.826Z,95.5
2017-04-18T02:55:23.564Z,95.36
2017-04-18T02:56:36.286Z,96.03
2017-04-18T02:57:49.211Z,96.03
2017-04-18T02:59:01.944Z,95.5
2017-04-18T03:00:14.878Z,95.6
2017-04-18T03:01:27.592Z,95.79
2017-04-18T03:02:39.845Z,95.6
2017-04-18T03:03:52.555Z,95.21
2017-04-18T03:05:05.274Z,94.64
2017-04-18T03:06:17.992Z,95.03
2017-04-18T03:07:30.819Z,95.17
2017-04-18T03:08:43.655Z,95.65
2017-04-18T03:09:56.394Z,95.65
2017-04-18T03:11:09.125Z,95.26
2017-04-18T03:12:21.845Z,95.07
2017-04-18T03:13:34.763Z,95.55
2017-04-18T03:14:47.495Z,95.79
2017-04-18T03:16:00.230Z,95.36
2017-04-18T03:17:13.559Z,95.4
2017-04-18T03:18:26.322Z,95.7
2017-04-18T03:19:39.188Z,95.7
2017-04-18T03:20:52.056Z,95.75
2017-04-18T03:22:04.927Z,95.45
2017-04-18T03:23:17.796Z,95.36
2017-04-18T03:24:29.871Z,95.45
2017-04-18T03:25:42.746Z,95.65
2017-04-18T03:26:55.601Z,95.7
2017-04-18T03:28:07.986Z,95.6
2017-04-18T03:29:20.856Z,95.26
2017-04-18T03:30:34.021Z,95.21
2017-04-18T03:31:46.886Z,95.07
2017-04-18T03:32:59.753Z,95.75
2017-04-18T03:34:12.599Z,95.7
2017-04-18T03:35:25.460Z,95.26
2017-04-18T03:36:37.845Z,95.21
2017-04-18T03:37:50.707Z,95.4
2017-04-18T03:39:03.539Z,95.5
2017-04-18T03:40:16.417Z,95.5
2017-04-18T03:41:30.376Z,95.4
2017-04-18T03:42:43.215Z,95.6
2017-04-18T03:43:56.305Z,94.93
2017-04-18T03:45:09.184Z,95.03
2017-04-18T03:46:36.078Z,95.03
2017-04-18T03:47:48.425Z,94.93
2017-04-18T03:49:00.798Z,95.03
2017-04-18T03:50:13.631Z,94.83
2017-04-18T03:51:26.464Z,94.73
2017-04-18T03:52:39.292Z,94.73
2017-04-18T03:53:52.134Z,94.93
2017-04-18T03:55:04.998Z,94.93
2017-04-18T03:56:17.832Z,94.93
2017-04-18T03:57:30.658Z,94.83
2017-04-18T03:58:43.552Z,94.93
2017-04-18T03:59:55.899Z,94.83
2017-04-18T04:01:08.729Z,94.83
2017-04-18T04:02:21.857Z,95.12
2017-04-18T04:03:34.643Z,94.83
2017-04-18T04:04:47.361Z,94.83
2017-04-18T04:05:59.569Z,94.73
2017-04-18T04:07:11.783Z,94.78
2017-04-18T04:08:24.471Z,94.68
2017-04-18T04:09:37.159Z,94.98
2017-04-18T04:10:49.844Z,94.83
2017-04-18T04:12:02.525Z,94.73
2017-04-18T04:13:15.039Z,94.73
2017-04-18T04:14:27.729Z,95.21
2017-04-18T04:15:40.420Z,95.6
2017-04-18T04:16:53.270Z,95.5
2017-04-18T04:18:05.958Z,95.4
2017-04-18T04:19:18.846Z,95.7
2017-04-18T04:20:31.526Z,95.79
2017-04-18T04:21:44.228Z,94.73
2017-04-18T04:22:56.923Z,95.03
2017-04-18T04:24:09.613Z,94.98
2017-04-18T04:25:22.299Z,94.88
2017-04-18T04:26:34.986Z,94.98
2017-04-18T04:27:47.204Z,95.26
2017-04-18T04:28:59.891Z,94.98
2017-04-18T04:30:12.784Z,94.3
2017-04-18T04:31:25.469Z,94.68
2017-04-18T04:32:38.161Z,94.68
2017-04-18T04:33:50.850Z,94.59
2017-04-18T04:35:03.553Z,94.21
2017-04-18T04:36:15.977Z,94.01
2017-04-18T04:37:28.840Z,94.4
2017-04-18T04:38:41.577Z,94.3
2017-04-18T04:39:54.266Z,94.01
2017-04-18T04:41:06.825Z,94.01
2017-04-18T04:42:19.511Z,94.3
2017-04-18T04:43:31.723Z,93.91
2017-04-18T04:44:44.407Z,93.91
2017-04-18T04:45:57.291Z,93.91
2017-04-18T04:47:09.976Z,94.01
2017-04-18T04:48:22.664Z,93.82
2017-04-18T04:49:35.352Z,93.15
2017-04-18T04:50:47.561Z,93.34
2017-04-18T04:52:00.448Z,93.44
2017-04-18T04:53:12.659Z,93.53
2017-04-18T04:54:25.156Z,93.15
2017-04-18T04:55:37.840Z,93.44
2017-04-18T04:56:50.589Z,92.96
2017-04-18T04:58:03.277Z,93.05
2017-04-18T04:59:15.978Z,92.86
2017-04-18T05:00:28.671Z,92.86
2017-04-18T05:01:41.355Z,92.96
2017-04-18T05:03:07.659Z,93.05
2017-04-18T05:04:19.871Z,92.76
2017-04-18T05:05:32.559Z,92.86
2017-04-18T05:06:45.244Z,92.96
2017-04-18T05:07:57.451Z,93.05
2017-04-18T05:09:10.171Z,92.86
2017-04-18T05:10:22.879Z,93.05
2017-04-18T05:11:35.648Z,92.91
2017-04-18T05:12:48.627Z,92.71
2017-04-18T05:14:01.314Z,92.86
2017-04-18T05:15:13.998Z,93.05
2017-04-18T05:16:26.683Z,93.05
2017-04-18T05:17:39.395Z,92.81
2017-04-18T05:18:52.286Z,92.86
2017-04-18T05:20:05.015Z,93.34
2017-04-18T05:21:17.703Z,93.15
2017-04-18T05:22:30.383Z,93.44
2017-04-18T05:23:43.083Z,94.21
2017-04-18T05:24:55.778Z,94.59
2017-04-18T05:26:07.999Z,94.88
2017-04-18T05:27:20.686Z,95.45
2017-04-18T05:28:33.369Z,95.65
2017-04-18T05:29:46.365Z,96.42
2017-04-18T05:30:59.050Z,96.61
2017-04-18T05:32:11.738Z,96.8
2017-04-18T05:33:24.425Z,96.61
2017-04-18T05:34:36.832Z,96.51
2017-04-18T05:35:49.044Z,97.14
2017-04-18T05:37:01.267Z,96.51
2017-04-18T05:38:13.957Z,97.33
2017-04-18T05:39:26.650Z,97.42
2017-04-18T05:40:39.333Z,97.19
2017-04-18T05:41:52.019Z,97.28
2017-04-18T05:43:04.229Z,97.28
2017-04-18T05:44:16.440Z,97.24
2017-04-18T05:45:29.126Z,97.24
2017-04-18T05:46:41.812Z,97.14
2017-04-18T05:47:54.022Z,97.52
2017-04-18T05:49:06.707Z,97.33
2017-04-18T05:50:19.391Z,97.81
2017-04-18T05:51:32.074Z,97.71
2017-04-18T05:52:44.759Z,97.81
2017-04-18T05:53:57.454Z,97.33
2017-04-18T05:55:10.148Z,97.52
2017-04-18T05:56:22.358Z,97.81
2017-04-18T05:57:35.350Z,97.71
2017-04-18T05:58:47.106Z,97.24
2017-04-18T05:59:59.798Z,97.19
2017-04-18T06:01:12.027Z,97.09
2017-04-18T06:02:23.767Z,97.52
2017-04-18T06:03:36.458Z,97.28
2017-04-18T06:04:48.671Z,97.09
2017-04-18T06:06:01.360Z,97.86
2017-04-18T06:07:13.575Z,97.86
2017-04-18T06:08:25.988Z,97.28
2017-04-18T06:09:38.681Z,98.05
2017-04-18T06:10:51.370Z,97.67
2017-04-18T06:12:04.063Z,98.44
2017-04-18T06:13:16.579Z,98.14
2017-04-18T06:14:29.268Z,98.86
2017-04-18T06:15:41.958Z,99.06
2017-04-18T06:16:54.646Z,99.83
2017-04-18T06:18:07.371Z,99.54
2017-04-18T06:19:20.256Z,99.73
2017-04-18T06:20:32.971Z,99.63
2017-04-18T06:21:45.217Z,99.99
2017-04-18T06:22:57.900Z,99.92
2017-04-18T06:24:10.823Z,99.99
2017-04-18T06:25:23.038Z,99.63
2017-04-18T06:26:35.245Z,99.63
2017-04-18T06:27:47.940Z,99.15
2017-04-18T06:29:00.630Z,99.73
2017-04-18T06:30:13.516Z,99.83
2017-04-18T06:31:25.724Z,99.73
2017-04-18T06:32:36.510Z,99.88
2017-04-18T06:33:49.202Z,99.54
2017-04-18T06:35:02.190Z,99.99
2017-04-18T06:36:14.881Z,99.83
2017-04-18T06:37:27.564Z,99.88
2017-04-18T06:38:40.254Z,99.83
2017-04-18T06:39:52.945Z,99.73
2017-04-18T06:41:05.509Z,99.92
2017-04-18T06:42:18.194Z,98.96
2017-04-18T06:43:30.882Z,99.15
2017-04-18T06:44:43.573Z,99.3
2017-04-18T06:45:56.460Z,99.06
2017-04-18T06:47:08.671Z,99.25
2017-04-18T06:48:20.883Z,99.73
2017-04-18T06:49:33.569Z,99.63
2017-04-18T06:50:46.259Z,99.83
2017-04-18T06:51:58.294Z,99.92
2017-04-18T06:53:09.079Z,99.99
2017-04-18T06:54:21.769Z,99.99
2017-04-18T06:55:34.449Z,98.86
2017-04-18T06:56:47.438Z,99.25
2017-04-18T06:57:59.654Z,99.35
2017-04-18T06:59:11.389Z,99.25
2017-04-18T07:00:24.073Z,99.21
2017-04-18T07:01:36.281Z,98.77
2017-04-18T07:02:48.070Z,98.91
2017-04-18T07:04:01.141Z,99.25
2017-04-18T07:05:13.479Z,98.77
2017-04-18T07:06:26.305Z,99.99
2017-04-18T07:07:39.130Z,99.44
2017-04-18T07:08:51.957Z,98.82
2017-04-18T07:10:04.774Z,99.01
2017-04-18T07:11:17.607Z,98.58
2017-04-18T07:12:28.978Z,98.39
2017-04-18T07:13:40.167Z,98.48
2017-04-18T07:14:53.000Z,98.68
2017-04-18T07:16:05.831Z,98.53
2017-04-18T07:17:18.652Z,98.19
2017-04-18T07:18:30.992Z,98.29
2017-04-18T07:19:43.825Z,98.1
2017-04-18T07:20:56.649Z,98.48
2017-04-18T07:22:09.475Z,98.19
2017-04-18T07:23:20.411Z,98.1
2017-04-18T07:24:31.914Z,98.29
2017-04-18T07:25:44.869Z,98.39
2017-04-18T07:26:57.692Z,98.1
2017-04-18T07:28:10.033Z,98
2017-04-18T07:29:21.408Z,97.71
2017-04-18T07:30:34.538Z,97.81
2017-04-18T07:31:46.870Z,97.47
2017-04-18T07:32:57.266Z,97.71
2017-04-18T07:34:07.668Z,97.47
2017-04-18T07:35:19.831Z,97.71
2017-04-18T07:36:32.658Z,97.33
2017-04-18T07:37:44.999Z,97.76
2017-04-18T07:38:57.839Z,97.57
2017-04-18T07:40:09.692Z,97.86
2017-04-18T07:41:36.096Z,97.28
2017-04-18T07:42:47.019Z,97.38
2017-04-18T07:43:57.477Z,97.47
2017-04-18T07:45:08.857Z,97.47
2017-04-18T07:46:20.930Z,97.19
2017-04-18T07:47:31.815Z,97.28
2017-04-18T07:48:44.509Z,97.67
2017-04-18T07:49:55.770Z,97.62
2017-04-18T07:51:07.978Z,97.76
2017-04-18T07:52:19.911Z,98.14
2017-04-18T07:53:30.222Z,98.14
2017-04-18T07:54:41.509Z,98.14
2017-04-18T07:55:52.769Z,98.53
2017-04-18T07:57:03.077Z,98.72
2017-04-18T07:58:14.636Z,98.91
2017-04-18T07:59:26.849Z,99.11
2017-04-18T08:00:39.081Z,98.91
2017-04-18T08:01:51.762Z,99.4
2017-04-18T08:03:03.511Z,99.88
2017-04-18T08:04:15.577Z,99.78
2017-04-18T08:05:27.306Z,99.92
2017-04-18T08:06:39.042Z,99.73
2017-04-18T08:07:51.258Z,99.83
2017-04-18T08:09:03.957Z,99.99
2017-04-18T08:10:16.167Z,99.99
2017-04-18T08:11:28.378Z,99.99
2017-04-18T08:12:40.113Z,99.99
2017-04-18T08:13:51.855Z,99.99
2017-04-18T08:15:04.065Z,99.99
2017-04-18T08:16:15.797Z,99.99
2017-04-18T08:17:27.529Z,99.99
2017-04-18T08:18:39.269Z,99.99
2017-04-18T08:19:51.488Z,99.99
2017-04-18T08:21:03.702Z,99.99
2017-04-18T08:22:16.114Z,99.99
2017-04-18T08:23:27.884Z,99.99
2017-04-18T08:24:39.148Z,99.99
2017-04-18T08:25:51.834Z,99.99
2017-04-18T08:27:03.566Z,99.99
2017-04-18T08:28:15.497Z,99.99
2017-04-18T08:29:27.715Z,99.99
2017-04-18T08:30:39.449Z,99.99
2017-04-18T08:31:51.659Z,99.99
2017-04-18T08:33:03.919Z,99.99
2017-04-18T08:34:16.269Z,99.99
2017-04-18T08:35:29.092Z,99.99
2017-04-18T08:36:41.430Z,99.99
2017-04-18T08:37:53.789Z,99.99
2017-04-18T08:39:06.619Z,99.99
2017-04-18T08:40:19.156Z,99.99
2017-04-18T08:41:31.009Z,99.99
2017-04-18T08:42:43.348Z,99.99
2017-04-18T08:43:56.168Z,99.99
2017-04-18T08:45:08.989Z,99.99
2017-04-18T08:46:20.838Z,99.99
2017-04-18T08:47:33.203Z,99.99
2017-04-18T08:48:46.044Z,99.99
2017-04-18T08:49:57.901Z,99.99
2017-04-18T08:51:10.240Z,99.99
2017-04-18T08:52:22.096Z,99.99
2017-04-18T08:53:33.471Z,99.99
2017-04-18T08:54:43.908Z,99.99
2017-04-18T08:55:55.772Z,99.99
2017-04-18T08:57:06.706Z,99.99
2017-04-18T08:58:17.728Z,99.99
2017-04-18T08:59:28.133Z,99.99
2017-04-18T09:00:40.468Z,99.99
2017-04-18T09:01:51.831Z,99.99
2017-04-18T09:03:03.684Z,99.99
2017-04-18T09:04:16.021Z,99.99
2017-04-18T09:05:27.875Z,99.99
2017-04-18T09:06:39.729Z,99.99
2017-04-18T09:07:52.552Z,99.99
2017-04-18T09:09:05.380Z,99.99
2017-04-18T09:10:18.202Z,99.99
2017-04-18T09:11:31.026Z,99.99
2017-04-18T09:12:43.361Z,99.99
2017-04-18T09:13:56.183Z,99.99
2017-04-18T09:15:08.770Z,99.99
2017-04-18T09:16:21.594Z,99.99
2017-04-18T09:17:33.914Z,99.99
2017-04-18T09:18:46.606Z,99.99
2017-04-18T09:19:59.292Z,99.99
2017-04-18T09:21:11.504Z,99.99
2017-04-18T09:22:24.190Z,99.99
2017-04-18T09:23:36.876Z,99.99
2017-04-18T09:24:49.086Z,99.99
2017-04-18T09:26:00.825Z,99.99
2017-04-18T09:27:13.030Z,99.99
2017-04-18T09:28:25.241Z,99.99
2017-04-18T09:29:37.931Z,99.99
2017-04-18T09:30:50.815Z,99.99
2017-04-18T09:32:03.595Z,99.99
2017-04-18T09:33:15.331Z,99.99
2017-04-18T09:34:28.022Z,99.99
2017-04-18T09:35:40.708Z,99.99
2017-04-18T09:36:52.641Z,99.99
2017-04-18T09:38:04.852Z,99.99
2017-04-18T09:39:17.538Z,99.99
2017-04-18T09:40:29.283Z,99.99
2017-04-18T09:41:41.686Z,99.99
2017-04-18T09:42:53.894Z,99.99
2017-04-18T09:44:06.581Z,99.99
2017-04-18T09:45:18.795Z,99.99
2017-04-18T09:46:31.008Z,99.99
2017-04-18T09:47:43.078Z,99.99
2017-04-18T09:48:55.298Z,99.99
2017-04-18T09:50:07.990Z,99.99
2017-04-18T09:51:20.687Z,99.99
2017-04-18T09:52:32.894Z,99.99
2017-04-18T09:53:45.583Z,99.99
2017-04-18T09:54:58.264Z,99.99
2017-04-18T09:56:10.488Z,99.99
2017-04-18T09:57:23.176Z,99.99
2017-04-18T09:58:35.384Z,99.99
2017-04-18T09:59:47.608Z,99.99
2017-04-18T10:00:59.814Z,99.99
2017-04-18T10:02:12.500Z,99.99
2017-04-18T10:03:39.277Z,99.99
2017-04-18T10:04:51.486Z,99.99
2017-04-18T10:06:03.700Z,99.99
2017-04-18T10:07:15.913Z,99.99
2017-04-18T10:08:27.850Z,99.99
2017-04-18T10:09:40.061Z,99.97
2017-04-18T10:10:52.745Z,99.99
2017-04-18T10:12:04.958Z,99.99
2017-04-18T10:13:17.641Z,99.99
2017-04-18T10:14:29.574Z,99.99
2017-04-18T10:15:41.790Z,99.99
2017-04-18T10:16:53.999Z,99.99
2017-04-18T10:18:06.752Z,99.99
2017-04-18T10:19:19.172Z,99.99
2017-04-18T10:20:31.871Z,99.78
2017-04-18T10:21:44.079Z,99.73
2017-04-18T10:22:56.291Z,99.63
2017-04-18T10:24:08.980Z,98.96
2017-04-18T10:25:21.966Z,98.82
2017-04-18T10:26:34.655Z,98.43
2017-04-18T10:27:46.870Z,97.96
2017-04-18T10:28:59.560Z,98.05
2017-04-18T10:30:12.453Z,98.24
2017-04-18T10:31:25.141Z,98.05
2017-04-18T10:32:37.829Z,97.96
2017-04-18T10:33:50.041Z,98.05
2017-04-18T10:35:02.312Z,97.09
2017-04-18T10:36:15.004Z,97.09
2017-04-18T10:37:27.688Z,96.99
2017-04-18T10:38:39.895Z,97.09
2017-04-18T10:39:52.112Z,96.89
2017-04-18T10:41:05.005Z,97.19
2017-04-18T10:42:17.701Z,97.19
2017-04-18T10:43:29.937Z,97.04
2017-04-18T10:44:42.626Z,97.42
2017-04-18T10:45:54.840Z,97.04
2017-04-18T10:47:07.056Z,97.04
2017-04-18T10:48:19.271Z,96.75
2017-04-18T10:49:31.009Z,96.08
2017-04-18T10:50:43.221Z,95.7
2017-04-18T10:51:55.159Z,96.08
2017-04-18T10:53:07.862Z,95.31
2017-04-18T10:54:20.320Z,94.93
2017-04-18T10:55:33.063Z,95.79
2017-04-18T10:56:45.761Z,95.79
2017-04-18T10:58:12.544Z,95.31
2017-04-18T10:59:25.248Z,95.7
2017-04-18T11:00:36.992Z,94.73
2017-04-18T11:01:49.701Z,94.83
2017-04-18T11:03:02.417Z,94.98
2017-04-18T11:04:14.693Z,93.19
2017-04-18T11:05:26.999Z,93.68
2017-04-18T11:06:39.767Z,93.39
2017-04-18T11:07:51.595Z,93.15
2017-04-18T11:09:03.907Z,93.49
2017-04-18T11:10:16.301Z,93.39
2017-04-18T11:11:28.510Z,92.81
2017-04-18T11:12:40.718Z,92.81
2017-04-18T11:13:53.606Z,93.19
2017-04-18T11:15:05.824Z,92.81
2017-04-18T11:16:18.517Z,92.81
2017-04-18T11:17:30.729Z,92.91
2017-04-18T11:18:43.421Z,93.01
2017-04-18T11:19:56.116Z,92.72
2017-04-18T11:21:07.856Z,92.96
2017-04-18T11:22:20.541Z,92.67
2017-04-18T11:23:32.758Z,92.72
2017-04-18T11:24:45.445Z,93.1
2017-04-18T11:25:57.187Z,93.91
2017-04-18T11:27:08.931Z,93.91
2017-04-18T11:28:21.632Z,92.96
2017-04-18T11:29:33.942Z,91.99
2017-04-18T11:30:46.161Z,92.47
2017-04-18T11:31:58.381Z,92.47
2017-04-18T11:33:11.163Z,92.38
2017-04-18T11:34:24.142Z,91.42
2017-04-18T11:35:37.084Z,91.32
2017-04-18T11:36:49.767Z,90.84
2017-04-18T11:38:02.770Z,91.75
2017-04-18T11:39:15.905Z,91.46
2017-04-18T11:40:28.395Z,90.5
2017-04-18T11:41:40.731Z,89.64
2017-04-18T11:42:53.664Z,90.41
2017-04-18T11:44:06.003Z,89.73
2017-04-18T11:45:19.039Z,89.35
2017-04-18T11:46:31.390Z,89.64
2017-04-18T11:47:43.729Z,89.44
2017-04-18T11:48:54.617Z,89.35
2017-04-18T11:50:07.447Z,89.73
2017-04-18T11:51:19.783Z,88.87
2017-04-18T11:52:32.613Z,88.87
2017-04-18T11:53:44.950Z,88.77
2017-04-18T11:54:56.804Z,88.67
2017-04-18T11:56:08.658Z,89.15
2017-04-18T11:57:21.479Z,89.06
2017-04-18T11:58:33.341Z,88.87
2017-04-18T11:59:45.682Z,88.39
2017-04-18T12:00:58.510Z,88.39
2017-04-18T12:02:11.338Z,88.39
2017-04-18T12:03:24.288Z,88.96
2017-04-18T12:04:36.627Z,88.96
2017-04-18T12:05:48.498Z,88.48
2017-04-18T12:07:01.315Z,88.67
2017-04-18T12:08:13.172Z,88.77
2017-04-18T12:09:25.712Z,88.39
2017-04-18T12:10:37.565Z,88.67
2017-04-18T12:11:49.904Z,88.19
2017-04-18T12:13:02.735Z,87.27
2017-04-18T12:14:15.577Z,86.6
2017-04-18T12:15:42.475Z,86.22
2017-04-18T12:16:55.402Z,85.83
2017-04-18T12:18:08.183Z,86.12
2017-04-18T12:19:19.919Z,86.02
2017-04-18T12:20:31.960Z,86.31
2017-04-18T12:21:44.668Z,86.02
2017-04-18T12:22:56.937Z,85.74
2017-04-18T12:24:08.680Z,86.02
2017-04-18T12:25:21.190Z,85.83
2017-04-18T12:26:33.895Z,86.12
2017-04-18T12:27:46.112Z,85.87
2017-04-18T12:28:58.322Z,83.95
2017-04-18T12:30:11.009Z,81.21
2017-04-18T12:31:22.747Z,81.5
2017-04-18T12:32:34.958Z,81.5
2017-04-18T12:33:46.705Z,81.4
2017-04-18T12:34:59.449Z,81.21
2017-04-18T12:36:12.438Z,81.7
2017-04-18T12:37:24.649Z,82.27
2017-04-18T12:38:36.871Z,82.08
2017-04-18T12:39:49.107Z,81.4
2017-04-18T12:41:01.790Z,78.03
2017-04-18T12:42:14.203Z,78.08
2017-04-18T12:43:39.561Z,77.78
2017-04-18T12:44:52.243Z,77.11
2017-04-18T12:46:04.947Z,76.44
2017-04-18T12:47:17.462Z,75.9
2017-04-18T12:48:30.161Z,74.93
2017-04-18T12:49:42.376Z,74.78
2017-04-18T12:50:54.595Z,74.4
2017-04-18T12:52:06.805Z,74.97
2017-04-18T12:53:18.087Z,75.2
2017-04-18T12:54:30.782Z,75.1
2017-04-18T12:55:42.994Z,75.2
2017-04-18T12:56:55.206Z,72.41
2017-04-18T12:58:07.425Z,71.38
2017-04-18T12:59:19.632Z,70.13
2017-04-18T13:00:32.317Z,68.23
2017-04-18T13:01:44.537Z,66.4
2017-04-18T13:02:56.854Z,66.11
2017-04-18T13:04:07.695Z,67.07
2017-04-18T13:05:18.960Z,67.11
2017-04-18T13:06:31.650Z,66.82
2017-04-18T13:07:43.387Z,66.72
2017-04-18T13:08:55.596Z,67.3
2017-04-18T13:10:08.588Z,66.59
2017-04-18T13:11:21.279Z,67.3
2017-04-18T13:12:33.012Z,66.43
2017-04-18T13:13:44.766Z,66.14
2017-04-18T13:14:56.975Z,65.66
2017-04-18T13:16:09.394Z,64.98
2017-04-18T13:17:20.660Z,64.34
2017-04-18T13:18:32.403Z,64.4
2017-04-18T13:19:44.146Z,64.05
2017-04-18T13:20:56.578Z,64.21
2017-04-18T13:22:08.786Z,64.43
2017-04-18T13:23:20.062Z,64.53
2017-04-18T13:24:30.847Z,64.63
2017-04-18T13:25:43.530Z,64.92
2017-04-18T13:26:55.770Z,65.11
2017-04-18T13:28:07.028Z,65.69
2017-04-18T13:29:18.775Z,65.4
2017-04-18T13:30:30.994Z,64.47
2017-04-18T13:31:43.687Z,63.11
2017-04-18T13:32:56.382Z,62.53
2017-04-18T13:34:08.430Z,61.02
2017-04-18T13:35:20.186Z,61.79
2017-04-18T13:36:32.447Z,62.37
2017-04-18T13:37:44.188Z,63.05
2017-04-18T13:38:56.883Z,63.05
2017-04-18T13:40:09.132Z,61.11
2017-04-18T13:41:20.400Z,62.18
2017-04-18T13:42:32.626Z,62.27
2017-04-18T13:43:42.948Z,62.47
2017-04-18T13:44:54.231Z,62.66
2017-04-18T13:46:19.122Z,62.63
2017-04-18T13:47:31.869Z,62.56
2017-04-18T13:48:44.705Z,61.3
2017-04-18T13:49:57.053Z,61.21
2017-04-18T13:51:10.054Z,61.11
2017-04-18T13:52:22.637Z,61.4
2017-04-18T13:53:34.021Z,60.53
2017-04-18T13:54:45.413Z,59.86
2017-04-18T13:55:56.321Z,58.8
2017-04-18T13:57:07.820Z,59.47
2017-04-18T13:58:19.710Z,59.18
2017-04-18T13:59:32.541Z,58.89
2017-04-18T14:00:44.890Z,58.82
2017-04-18T14:01:57.728Z,58.63
2017-04-18T14:03:09.112Z,58.14
2017-04-18T14:04:19.533Z,57.46
2017-04-18T14:05:30.451Z,57.76
2017-04-18T14:06:41.453Z,58.14
2017-04-18T14:07:52.876Z,56.6
2017-04-18T14:09:03.804Z,56.02
2017-04-18T14:10:16.810Z,56.11
2017-04-18T14:11:29.672Z,56.98
2017-04-18T14:12:42.562Z,57.44
2017-04-18T14:13:55.010Z,56.09
2017-04-18T14:15:07.010Z,56.09
2017-04-18T14:16:18.977Z,57.89
2017-04-18T14:17:31.849Z,57.89
2017-04-18T14:18:44.200Z,57.99
2017-04-18T14:19:57.029Z,58.86
2017-04-18T14:21:08.892Z,58.28
2017-04-18T14:22:21.715Z,58.89
2017-04-18T14:23:34.546Z,58.4
2017-04-18T14:24:47.379Z,58.4
2017-04-18T14:26:00.281Z,57.05
2017-04-18T14:27:12.620Z,56.25
2017-04-18T14:28:25.446Z,56.93
2017-04-18T14:29:38.268Z,57.41
2017-04-18T14:30:51.098Z,57.12
2017-04-18T14:32:03.927Z,57.99
2017-04-18T14:33:16.750Z,58.18
2017-04-18T14:34:29.577Z,59.47
2017-04-18T14:35:42.712Z,59.47
2017-04-18T14:36:55.060Z,59.86
2017-04-18T14:38:07.910Z,59.76
2017-04-18T14:39:20.741Z,59.76
2017-04-18T14:40:33.775Z,60.27
2017-04-18T14:41:46.122Z,61.21
2017-04-18T14:42:58.958Z,61.21
2017-04-18T14:44:11.327Z,62.76
2017-04-18T14:45:24.161Z,62.82
2017-04-18T14:46:51.059Z,63.02
2017-04-18T14:48:03.885Z,64.08
2017-04-18T14:49:16.711Z,65.34
2017-04-18T14:50:29.050Z,65.43
2017-04-18T14:51:41.394Z,65.56
2017-04-18T14:52:54.228Z,66.59
2017-04-18T14:54:06.617Z,67.27
2017-04-18T14:55:19.447Z,67.66
2017-04-18T14:56:32.276Z,69.17
2017-04-18T14:57:45.105Z,69.9
2017-04-18T14:58:57.928Z,70.78
2017-04-18T15:00:10.759Z,71.51
2017-04-18T15:01:23.585Z,71.9
2017-04-18T15:02:36.407Z,72.09
2017-04-18T15:03:49.244Z,72.63
2017-04-18T15:05:02.071Z,72.58
2017-04-18T15:06:14.905Z,73.21
2017-04-18T15:07:27.934Z,73.93
2017-04-18T15:08:40.783Z,74.37
2017-04-18T15:09:53.829Z,74.47
2017-04-18T15:11:06.165Z,74.47
2017-04-18T15:12:18.989Z,74.76
2017-04-18T15:13:31.819Z,74.76
2017-04-18T15:14:44.639Z,75.05
2017-04-18T15:15:56.978Z,75.72
2017-04-18T15:17:09.801Z,76.36
2017-04-18T15:18:22.835Z,77.23
2017-04-18T15:19:35.662Z,77.42
2017-04-18T15:20:48.489Z,77.61
2017-04-18T15:22:01.327Z,78.09
2017-04-18T15:23:14.180Z,78.15
2017-04-18T15:24:27.367Z,79.21
2017-04-18T15:25:40.195Z,79.31
2017-04-18T15:26:52.545Z,79.79
2017-04-18T15:28:04.883Z,80.27
2017-04-18T15:29:17.713Z,81.29
2017-04-18T15:30:30.050Z,81.39
2017-04-18T15:31:42.869Z,81.68
2017-04-18T15:32:55.245Z,82.26
2017-04-18T15:34:08.082Z,81.87
2017-04-18T15:35:34.970Z,83.66
2017-04-18T15:36:47.315Z,83.18
2017-04-18T15:37:59.693Z,83.18
2017-04-18T15:39:12.517Z,83.66
2017-04-18T15:40:25.541Z,83.66